Terminal Aerodrome Forecast
Issued by NWS

Home | Current Version | Previous Version | Text Only | Print | Product List | Glossary On
Versions: 1 2 3 4 5 6 7 8 9 10 11 12 13 14 15 16 17 18 19 20 21 22 23 24 25 26 27
000
FTUS43 KAPX 300100 AAB
TAFAPN
TAF AMD
KAPN 300130Z 3002/3024 VRB05KT P6SM VCSH BKN050
     FM300400 31004KT P6SM FEW040 SCT250
     FM301100 30006KT P6SM BKN008
     FM301500 32008KT P6SM FEW025 BKN250
     FM302100 VRB03KT P6SM BKN120=

USA.gov is the U.S. government's official web portal to all federal, state and local government web resources and services.